Time;durP1;ratioP1;P1;durP2;ratioP2;P2;SDS_P1;SDS_P2;PMS_P1;PMS_P2;Temp;Humidity;BMP_temperature;BMP_pressure;BME280_temperature;BME280_humidity;BME280_pressure;Samples;Min_cycle;Max_cycle;Signal;HPM_P1;HPM_P2
2023/08/18 00:01:22;;;;;;;0.20;0.20;;;;;;;20.73;63.44;100462.38;5026051;28;20052;-70
2023/08/18 00:03:49;;;;;;;0.30;0.30;;;;;;;20.62;65.06;100459.94;5042661;28;20332;-70
2023/08/18 00:06:15;;;;;;;0.30;0.30;;;;;;;20.55;66.34;100462.41;5024764;28;20050;-70
2023/08/18 00:08:42;;;;;;;0.22;0.22;;;;;;;20.50;65.93;100457.81;5036538;28;20107;-70
2023/08/18 00:11:09;;;;;;;0.30;0.30;;;;;;;20.50;65.76;100462.53;5039433;28;20044;-72
2023/08/18 00:13:35;;;;;;;0.20;0.20;;;;;;;20.52;66.26;100465.81;5041578;28;20504;-70
2023/08/18 00:16:01;;;;;;;0.20;0.20;;;;;;;20.48;64.93;100465.66;5043806;28;20061;-69
2023/08/18 00:18:28;;;;;;;0.40;0.40;;;;;;;20.53;66.60;100471.03;5021811;28;20110;-69
2023/08/18 00:20:54;;;;;;;0.20;0.20;;;;;;;20.57;65.33;100479.56;5028864;28;20076;-69
2023/08/18 00:23:20;;;;;;;0.30;0.30;;;;;;;20.57;65.93;100470.38;5026813;28;20103;-69
2023/08/18 00:25:47;;;;;;;0.30;0.30;;;;;;;20.55;65.04;100468.75;5024042;28;20049;-69
2023/08/18 00:28:14;;;;;;;0.30;0.30;;;;;;;20.57;66.50;100471.22;5007319;28;20457;-70
2023/08/18 00:30:40;;;;;;;0.20;0.20;;;;;;;20.59;64.70;100477.25;5033767;28;20050;-70
2023/08/18 00:33:07;;;;;;;0.20;0.20;;;;;;;20.58;62.54;100472.84;5025102;28;20135;-70
2023/08/18 00:35:34;;;;;;;0.30;0.30;;;;;;;20.59;63.39;100468.09;5024100;28;20088;-73
2023/08/18 00:38:01;;;;;;;0.30;0.30;;;;;;;20.61;65.05;100469.41;5025910;28;20136;-74
2023/08/18 00:40:30;;;;;;;0.20;0.20;;;;;;;20.66;66.45;100476.78;5036340;28;20048;-73
2023/08/18 00:42:58;;;;;;;0.20;0.20;;;;;;;20.66;66.13;100471.22;5005168;28;20038;-74
2023/08/18 00:45:26;;;;;;;0.30;0.30;;;;;;;20.69;63.82;100474.16;4988793;28;20073;-74
2023/08/18 00:47:52;;;;;;;0.20;0.20;;;;;;;20.63;62.67;100474.66;5024606;28;20064;-74
2023/08/18 00:50:19;;;;;;;0.30;0.30;;;;;;;20.55;62.67;100473.50;5027327;28;20053;-75
2023/08/18 00:52:53;;;;;;;0.30;0.30;;;;;;;20.53;63.16;100468.25;5028245;28;20092;-75
2023/08/18 00:55:19;;;;;;;0.30;0.30;;;;;;;20.52;63.41;100465.81;5019542;28;20203;-75
2023/08/18 00:57:46;;;;;;;0.40;0.40;;;;;;;20.40;64.34;100452.56;5028967;28;20050;-74
2023/08/18 01:00:14;;;;;;;0.30;0.30;;;;;;;20.51;64.77;100469.72;5030852;28;20053;-74
2023/08/18 01:02:40;;;;;;;0.30;0.30;;;;;;;20.51;64.22;100470.56;5039183;28;20073;-75
2023/08/18 01:05:07;;;;;;;0.20;0.20;;;;;;;20.55;65.78;100460.41;5028159;28;20057;-74
2023/08/18 01:07:33;;;;;;;0.23;0.23;;;;;;;20.54;65.58;100449.66;5012947;28;20589;-74
2023/08/18 01:10:00;;;;;;;0.20;0.20;;;;;;;20.61;65.56;100461.06;5028210;28;20432;-69
2023/08/18 01:12:38;;;;;;;0.22;0.22;;;;;;;20.68;65.79;100463.38;5040396;28;20626;-70
2023/08/18 01:15:12;;;;;;;0.30;0.30;;;;;;;20.69;65.76;100457.50;5029312;28;20049;-69
2023/08/18 01:17:50;;;;;;;0.20;0.20;;;;;;;20.72;64.50;100447.66;5031001;28;20176;-75
2023/08/18 01:20:17;;;;;;;0.28;0.28;;;;;;;20.76;64.91;100456.16;5031453;28;20140;-74
2023/08/18 01:22:45;;;;;;;0.20;0.20;;;;;;;20.79;64.59;100453.56;5032690;28;20630;-75
2023/08/18 01:25:14;;;;;;;0.30;0.30;;;;;;;20.80;65.22;100446.88;5030372;28;20046;-74
2023/08/18 01:27:41;;;;;;;0.30;0.30;;;;;;;20.74;66.43;100439.81;5027815;28;20516;-74
2023/08/18 01:30:08;;;;;;;0.20;0.20;;;;;;;20.71;65.33;100440.47;5013700;28;20099;-69
2023/08/18 01:32:43;;;;;;;0.20;0.20;;;;;;;20.69;65.59;100431.66;5039013;28;20360;-68
2023/08/18 01:35:11;;;;;;;0.20;0.20;;;;;;;20.69;64.66;100440.81;5049669;28;20045;-68
2023/08/18 01:37:38;;;;;;;0.30;0.30;;;;;;;20.72;64.41;100438.53;5031717;28;20044;-70
2023/08/18 01:40:05;;;;;;;;;;;;;;;20.70;64.08;100441.63;5048223;28;20457;-69
2023/08/18 01:42:34;;;;;;;0.20;0.20;;;;;;;20.70;63.48;100438.84;5046655;28;19924;-69
2023/08/18 01:45:02;;;;;;;0.25;0.25;;;;;;;20.68;63.51;100439.19;5049993;28;20427;-69
2023/08/18 01:47:31;;;;;;;0.20;0.20;;;;;;;20.68;65.03;100433.63;5047843;28;20316;-69
2023/08/18 01:49:57;;;;;;;0.20;0.20;;;;;;;20.64;62.67;100426.28;5042705;28;20476;-70
2023/08/18 01:52:23;;;;;;;0.20;0.20;;;;;;;20.59;64.84;100430.03;5049822;28;20123;-69
2023/08/18 01:54:50;;;;;;;0.20;0.20;;;;;;;20.53;63.02;100432.16;5049515;28;20045;-70
2023/08/18 01:57:16;;;;;;;0.20;0.20;;;;;;;20.51;62.68;100425.28;5028902;28;20168;-69
2023/08/18 01:59:44;;;;;;;0.20;0.20;;;;;;;20.49;62.60;100436.75;5043568;28;20083;-70
2023/08/18 02:02:11;;;;;;;0.30;0.30;;;;;;;20.50;64.54;100434.75;5048116;28;20049;-71
2023/08/18 02:04:39;;;;;;;0.20;0.20;;;;;;;20.44;63.66;100438.88;5032016;28;20130;-69
2023/08/18 02:07:05;;;;;;;0.20;0.20;;;;;;;20.35;62.24;100436.09;5048247;28;20183;-72
2023/08/18 02:09:32;;;;;;;0.20;0.20;;;;;;;20.30;62.81;100434.28;5027222;28;20312;-70
2023/08/18 02:11:58;;;;;;;0.25;0.25;;;;;;;20.25;60.79;100440.00;5009400;28;20049;-69
2023/08/18 02:14:25;;;;;;;0.22;0.22;;;;;;;20.21;61.94;100445.38;5010872;28;20052;-69
2023/08/18 02:16:52;;;;;;;0.30;0.30;;;;;;;20.19;61.99;100446.84;5025718;28;20049;-69
2023/08/18 02:19:18;;;;;;;0.20;0.20;;;;;;;20.22;63.52;100452.56;5034565;28;20695;-69
2023/08/18 02:21:45;;;;;;;0.22;0.22;;;;;;;20.25;62.41;100453.88;5043950;28;20102;-69
2023/08/18 02:24:11;;;;;;;0.20;0.20;;;;;;;20.23;61.61;100459.75;5043703;28;20037;-70
2023/08/18 02:26:37;;;;;;;0.30;0.30;;;;;;;20.19;62.33;100452.38;5046154;28;20106;-70
2023/08/18 02:29:04;;;;;;;0.20;0.20;;;;;;;20.21;62.83;100455.66;5045912;28;20057;-70
2023/08/18 02:31:30;;;;;;;0.20;0.20;;;;;;;20.22;63.48;100460.09;5043365;28;20139;-69
2023/08/18 02:33:58;;;;;;;0.20;0.20;;;;;;;20.21;62.90;100464.81;5010530;28;20144;-70
2023/08/18 02:36:24;;;;;;;0.20;0.20;;;;;;;20.24;63.50;100457.81;5023676;28;20054;-68
2023/08/18 02:38:50;;;;;;;0.25;0.25;;;;;;;20.26;63.61;100469.41;5023075;28;20497;-70
2023/08/18 02:41:19;;;;;;;0.30;0.30;;;;;;;20.28;64.52;100461.56;5027000;28;20144;-70
2023/08/18 02:43:47;;;;;;;0.30;0.30;;;;;;;20.30;63.46;100456.50;5040647;28;20044;-70
2023/08/18 02:46:14;;;;;;;0.30;0.30;;;;;;;20.32;61.90;100470.06;5045315;28;20049;-70
2023/08/18 02:48:40;;;;;;;0.30;0.30;;;;;;;;;;5036954;28;20533;-70
2023/08/18 02:51:08;;;;;;;0.25;0.25;;;;;;;20.39;61.74;100481.50;5025675;28;20050;-69
2023/08/18 02:53:35;;;;;;;0.30;0.30;;;;;;;20.40;60.73;100483.13;5035338;28;20668;-70
2023/08/18 02:56:02;;;;;;;0.20;0.20;;;;;;;20.48;60.34;100496.22;5042538;28;20056;-69
2023/08/18 02:58:29;;;;;;;0.20;0.20;;;;;;;20.51;61.03;100487.22;5041740;28;20088;-70
2023/08/18 03:01:01;;;;;;;0.30;0.30;;;;;;;20.60;59.65;100497.50;5026576;28;20057;-69
2023/08/18 03:03:27;;;;;;;0.30;0.30;;;;;;;20.69;61.02;100496.38;5032895;28;20110;-70
2023/08/18 03:05:53;;;;;;;0.30;0.30;;;;;;;20.81;60.39;100494.94;5044932;28;20107;-70
2023/08/18 03:08:21;;;;;;;0.30;0.30;;;;;;;20.87;59.75;100501.97;5042885;28;20143;-70
2023/08/18 03:10:56;;;;;;;0.30;0.30;;;;;;;20.90;60.88;100497.69;5045348;28;20140;-70
2023/08/18 03:13:22;;;;;;;0.20;0.20;;;;;;;20.92;61.79;100495.44;5045088;28;20051;-70
2023/08/18 03:15:48;;;;;;;0.30;0.30;;;;;;;20.91;61.77;100488.22;5041923;28;20126;-70
2023/08/18 03:18:14;;;;;;;0.30;0.30;;;;;;;20.94;61.84;100493.94;5027944;28;20171;-71
2023/08/18 03:20:41;;;;;;;0.20;0.20;;;;;;;20.95;61.71;100483.66;5027072;28;20049;-71
2023/08/18 03:23:08;;;;;;;0.30;0.30;;;;;;;21.02;61.46;100486.72;5026165;28;20041;-70
2023/08/18 03:25:35;;;;;;;0.30;0.30;;;;;;;21.06;62.25;100482.16;5046028;28;20041;-70
2023/08/18 03:28:03;;;;;;;0.30;0.30;;;;;;;21.10;62.70;100485.91;5025934;28;20319;-75
2023/08/18 03:30:29;;;;;;;0.30;0.30;;;;;;;21.16;62.81;100496.84;5039808;28;20096;-74
2023/08/18 03:32:57;;;;;;;0.20;0.20;;;;;;;21.19;63.13;100499.81;5033413;28;20140;-74
2023/08/18 03:35:23;;;;;;;0.30;0.30;;;;;;;21.22;62.35;100504.69;5028678;28;20099;-73
2023/08/18 03:37:49;;;;;;;0.30;0.30;;;;;;;21.25;62.90;100509.59;5027505;28;20045;-75
2023/08/18 03:40:15;;;;;;;0.30;0.30;;;;;;;21.31;62.70;100510.22;5024369;28;20529;-74
2023/08/18 03:42:43;;;;;;;0.30;0.30;;;;;;;21.36;62.59;100496.16;5027257;28;20057;-74
2023/08/18 03:45:11;;;;;;;0.30;0.30;;;;;;;21.39;62.83;100501.06;5028572;28;20452;-74
2023/08/18 03:47:37;;;;;;;0.30;0.30;;;;;;;21.48;63.35;100497.44;5027630;28;20057;-75
2023/08/18 03:50:04;;;;;;;0.30;0.30;;;;;;;21.55;62.50;100497.75;5012231;28;20050;-75
2023/08/18 03:52:31;;;;;;;0.30;0.30;;;;;;;21.59;61.76;100484.78;5027990;28;20068;-75
2023/08/18 03:54:57;;;;;;;0.30;0.30;;;;;;;21.68;62.21;100485.59;5007558;28;20054;-70
2023/08/18 03:57:23;;;;;;;0.30;0.30;;;;;;;21.78;61.90;100491.94;5043253;28;20110;-69
2023/08/18 03:59:53;;;;;;;0.20;0.20;;;;;;;21.83;62.00;100491.75;5042185;28;20041;-70
2023/08/18 04:02:20;;;;;;;0.30;0.30;;;;;;;21.88;61.61;100494.38;5043561;28;20494;-70
2023/08/18 04:04:47;;;;;;;0.30;0.30;;;;;;;21.94;61.49;100498.56;5023966;28;20048;-70
2023/08/18 04:07:13;;;;;;;0.30;0.30;;;;;;;22.04;60.29;100505.72;5032498;28;20059;-71
2023/08/18 04:09:39;;;;;;;0.20;0.20;;;;;;;22.07;60.96;100504.25;5029141;28;20907;-70
2023/08/18 04:12:06;;;;;;;0.20;0.20;;;;;;;22.03;60.56;100509.66;5033098;28;20045;-71
2023/08/18 04:14:32;;;;;;;0.30;0.30;;;;;;;22.02;60.50;100508.03;5041103;28;20048;-71
2023/08/18 04:17:00;;;;;;;0.30;0.30;;;;;;;22.00;60.36;100509.50;5039351;28;20041;-70
2023/08/18 04:19:26;;;;;;;0.30;0.30;;;;;;;21.99;59.78;100497.56;5023757;28;20041;-70
2023/08/18 04:21:52;;;;;;;0.30;0.30;;;;;;;21.99;59.86;100493.97;5025509;28;20461;-70
2023/08/18 04:24:18;;;;;;;0.20;0.20;;;;;;;21.98;60.16;100500.69;5040548;28;20052;-71
2023/08/18 04:26:44;;;;;;;0.30;0.30;;;;;;;22.06;60.36;100494.25;5043607;28;20043;-70
2023/08/18 04:29:11;;;;;;;0.30;0.30;;;;;;;22.19;59.86;100498.78;5040612;28;20033;-70
2023/08/18 04:31:38;;;;;;;0.30;0.30;;;;;;;22.29;59.78;100505.91;5041185;28;20049;-68
2023/08/18 04:34:12;;;;;;;0.32;0.32;;;;;;;22.38;60.52;100515.00;5042835;28;20041;-70
2023/08/18 04:36:38;;;;;;;0.30;0.30;;;;;;;22.47;61.00;100514.16;5042970;28;20059;-70
2023/08/18 04:39:05;;;;;;;0.30;0.30;;;;;;;22.59;60.06;100522.63;5037374;28;20100;-70
2023/08/18 04:41:32;;;;;;;0.30;0.30;;;;;;;22.69;60.05;100510.25;5019794;28;20513;-70
2023/08/18 04:43:58;;;;;;;0.30;0.30;;;;;;;22.83;59.02;100507.16;5021573;28;20444;-71
2023/08/18 04:46:27;;;;;;;0.30;0.30;;;;;;;22.95;58.37;100503.66;5003436;28;20107;-70
2023/08/18 04:48:58;;;;;;;0.30;0.30;;;;;;;23.06;58.11;100504.81;5011852;28;20059;-70
2023/08/18 04:51:27;;;;;;;0.30;0.30;;;;;;;23.16;57.60;100491.63;5040728;28;20535;-70
2023/08/18 04:53:53;;;;;;;0.35;0.35;;;;;;;23.29;56.59;100490.53;5043209;28;20100;-74
2023/08/18 04:56:20;;;;;;;0.30;0.30;;;;;;;23.43;56.10;100497.78;5013579;28;20053;-70
2023/08/18 04:58:47;;;;;;;0.30;0.30;;;;;;;23.55;55.38;100494.97;5034203;28;20068;-70
2023/08/18 05:01:14;;;;;;;0.90;0.40;;;;;;;23.65;54.95;100494.53;5024136;28;20110;-74
2023/08/18 05:03:41;;;;;;;0.30;0.30;;;;;;;23.69;54.74;100491.06;5026676;28;20055;-74
2023/08/18 05:06:09;;;;;;;0.30;0.30;;;;;;;23.75;54.58;100493.25;5045578;28;20101;-75
2023/08/18 05:08:39;;;;;;;0.40;0.40;;;;;;;23.79;55.10;100491.41;5040695;28;20110;-76
2023/08/18 05:11:06;;;;;;;0.30;0.30;;;;;;;23.86;54.93;100501.19;5022339;28;20056;-71
2023/08/18 05:13:33;;;;;;;0.40;0.40;;;;;;;23.91;54.48;100500.94;5042790;28;20041;-71
2023/08/18 05:16:00;;;;;;;0.30;0.30;;;;;;;23.94;54.27;100503.88;5043356;28;20435;-71
2023/08/18 05:18:30;;;;;;;0.40;0.40;;;;;;;24.04;53.86;100501.78;5040388;28;20045;-71
2023/08/18 05:20:56;;;;;;;0.40;0.40;;;;;;;24.07;53.75;100503.91;5044209;28;20175;-72
2023/08/18 05:23:23;;;;;;;0.30;0.30;;;;;;;24.12;54.16;100506.44;5043400;28;20079;-70
2023/08/18 05:25:54;;;;;;;0.30;0.30;;;;;;;24.13;53.66;100505.28;5042515;28;20115;-71
2023/08/18 05:28:21;;;;;;;0.40;0.40;;;;;;;24.16;53.84;100503.78;5036087;28;20452;-70
2023/08/18 05:30:48;;;;;;;0.38;0.30;;;;;;;24.21;54.01;100506.31;5022172;28;20077;-70
2023/08/18 05:33:15;;;;;;;0.30;0.30;;;;;;;24.23;54.02;100505.97;5024657;28;20053;-71
2023/08/18 05:35:42;;;;;;;0.30;0.30;;;;;;;24.30;53.65;100509.81;5005021;28;20069;-70
2023/08/18 05:38:12;;;;;;;0.35;0.35;;;;;;;24.34;53.52;100509.91;5034205;28;20045;-71
2023/08/18 05:40:41;;;;;;;0.32;0.32;;;;;;;24.33;53.33;100500.72;5040332;28;20128;-70
2023/08/18 05:43:10;;;;;;;0.40;0.40;;;;;;;24.34;53.97;100495.94;5045704;28;20084;-69
2023/08/18 05:45:38;;;;;;;0.30;0.30;;;;;;;24.42;53.67;100497.78;5045291;28;20045;-71
2023/08/18 05:48:05;;;;;;;0.30;0.30;;;;;;;24.46;53.99;100495.09;5041516;28;20049;-71
2023/08/18 05:50:32;;;;;;;0.40;0.40;;;;;;;24.53;55.00;100491.72;5024365;28;20052;-70
2023/08/18 05:53:01;;;;;;;0.30;0.30;;;;;;;24.59;55.30;100487.50;5050522;28;20048;-70
2023/08/18 05:55:28;;;;;;;0.30;0.30;;;;;;;24.64;53.99;100484.44;5029877;28;20049;-74
2023/08/18 05:57:58;;;;;;;0.30;0.30;;;;;;;24.67;53.30;100483.75;5043943;28;20488;-74
2023/08/18 06:00:26;;;;;;;0.30;0.30;;;;;;;24.70;52.11;100482.22;5034682;28;20046;-75
2023/08/18 06:02:53;;;;;;;0.30;0.30;;;;;;;24.75;52.50;100490.38;5035563;28;20148;-74
2023/08/18 06:05:20;;;;;;;0.30;0.30;;;;;;;24.83;52.17;100483.03;5046372;28;20049;-74
2023/08/18 06:07:46;;;;;;;0.30;0.30;;;;;;;24.93;52.12;100488.09;5049313;28;20098;-74
2023/08/18 06:10:13;;;;;;;0.30;0.30;;;;;;;25.02;52.35;100499.94;5042090;28;20040;-74
2023/08/18 06:12:39;;;;;;;0.30;0.30;;;;;;;25.10;51.09;100497.34;5027997;28;20391;-75
2023/08/18 06:15:07;;;;;;;0.30;0.30;;;;;;;25.14;50.95;100512.25;5027251;28;20148;-74
2023/08/18 06:17:35;;;;;;;0.30;0.30;;;;;;;25.11;50.84;100499.78;5030893;28;20059;-75
2023/08/18 06:20:01;;;;;;;0.30;0.30;;;;;;;25.10;50.40;100503.75;5044660;28;20131;-74
2023/08/18 06:22:30;;;;;;;0.30;0.30;;;;;;;25.12;50.84;100501.41;5047380;28;20075;-70
2023/08/18 06:24:57;;;;;;;0.30;0.30;;;;;;;25.15;51.76;100495.09;5046704;28;20183;-70
2023/08/18 06:27:23;;;;;;;0.40;0.40;;;;;;;25.18;51.93;100487.97;5039771;28;20048;-70
2023/08/18 06:29:49;;;;;;;0.40;0.40;;;;;;;25.26;51.25;100506.56;5037573;28;20057;-70
2023/08/18 06:32:15;;;;;;;0.30;0.30;;;;;;;25.32;51.13;100510.75;5031436;28;20080;-69
2023/08/18 06:34:43;;;;;;;0.30;0.30;;;;;;;25.44;51.23;100500.63;5040350;28;20540;-69
2023/08/18 06:37:10;;;;;;;0.30;0.30;;;;;;;25.65;50.81;100503.22;5042651;28;20515;-70
2023/08/18 06:39:36;;;;;;;;;;;;;;;25.84;51.10;100513.69;5032615;28;20073;-69
2023/08/18 06:42:02;;;;;;;0.30;0.30;;;;;;;25.95;50.13;100494.34;5025778;28;19997;-70
2023/08/18 06:44:32;;;;;;;0.30;0.30;;;;;;;26.04;49.17;100494.13;5032210;28;20049;-74
2023/08/18 06:46:58;;;;;;;0.30;0.30;;;;;;;25.95;48.94;100473.94;5035177;28;20067;-71
2023/08/18 06:49:24;;;;;;;0.40;0.40;;;;;;;26.03;48.72;100481.31;5034463;28;20045;-70
2023/08/18 06:51:52;;;;;;;0.40;0.40;;;;;;;26.07;48.59;100485.03;5029477;28;20083;-70
2023/08/18 06:54:18;;;;;;;0.38;0.38;;;;;;;26.25;48.57;100487.47;5027539;28;20377;-74
2023/08/18 06:56:45;;;;;;;0.40;0.40;;;;;;;26.58;48.29;100491.78;5037470;28;20412;-75
2023/08/18 06:59:12;;;;;;;0.60;0.43;;;;;;;26.86;47.54;100491.56;5029793;28;20205;-74
2023/08/18 07:01:38;;;;;;;0.40;0.40;;;;;;;27.10;46.74;100491.63;5025496;28;20136;-74
2023/08/18 07:04:05;;;;;;;0.40;0.40;;;;;;;27.24;46.58;100485.47;5032407;28;20381;-73
2023/08/18 07:06:31;;;;;;;0.50;0.50;;;;;;;27.42;46.31;100495.03;5040734;28;20459;-74
2023/08/18 07:08:59;;;;;;;0.40;0.40;;;;;;;27.55;44.97;100492.06;5047623;28;20562;-74
2023/08/18 07:11:25;;;;;;;0.40;0.40;;;;;;;27.64;45.39;100505.88;5047873;28;20056;-73
2023/08/18 07:13:52;;;;;;;0.43;0.43;;;;;;;27.77;45.38;100501.66;5044278;28;20056;-75
2023/08/18 07:16:18;;;;;;;0.50;0.50;;;;;;;27.83;46.50;100505.78;5040324;28;20968;-70
2023/08/18 07:18:44;;;;;;;0.40;0.40;;;;;;;27.73;46.06;100512.84;5036247;28;20713;-71
2023/08/18 07:21:10;;;;;;;0.40;0.40;;;;;;;27.72;47.67;100511.22;5038947;28;20045;-70
2023/08/18 07:23:37;;;;;;;0.75;0.60;;;;;;;27.73;47.32;100518.47;5037493;28;20049;-74
2023/08/18 07:26:05;;;;;;;0.40;0.40;;;;;;;27.64;46.72;100517.91;5028945;28;20061;-74
2023/08/18 07:28:31;;;;;;;0.40;0.40;;;;;;;27.54;46.35;100524.94;5038311;28;20041;-74
2023/08/18 07:31:02;;;;;;;0.40;0.40;;;;;;;27.35;46.84;100520.16;5033074;28;20045;-70
2023/08/18 07:33:30;;;;;;;0.30;0.30;;;;;;;27.20;47.23;100519.09;5032315;28;20067;-70
2023/08/18 07:35:56;;;;;;;0.50;0.50;;;;;;;27.20;47.00;100513.47;5018612;28;20053;-70
2023/08/18 07:38:23;;;;;;;0.50;0.50;;;;;;;27.67;45.83;100522.75;5010204;28;20479;-70
2023/08/18 07:40:49;;;;;;;0.50;0.50;;;;;;;28.22;44.97;100507.59;5028811;28;20052;-70
2023/08/18 07:43:16;;;;;;;0.50;0.50;;;;;;;28.69;43.70;100524.31;5018082;28;20052;-70
2023/08/18 07:45:43;;;;;;;0.50;0.50;;;;;;;29.03;42.55;100529.97;5029377;28;20041;-70
2023/08/18 07:48:09;;;;;;;0.50;0.50;;;;;;;29.30;41.81;100522.22;5033907;28;20072;-70
2023/08/18 07:50:35;;;;;;;0.50;0.50;;;;;;;29.40;41.10;100526.34;5056940;28;20061;-70
2023/08/18 07:53:01;;;;;;;0.50;0.50;;;;;;;29.60;40.48;100531.81;5034098;28;20521;-70
2023/08/18 07:55:28;;;;;;;0.50;0.50;;;;;;;29.79;40.90;100527.91;5035601;28;20133;-69
2023/08/18 07:57:54;;;;;;;0.50;0.50;;;;;;;30.00;40.24;100520.84;5056722;28;20072;-70
2023/08/18 08:00:22;;;;;;;0.68;0.60;;;;;;;30.12;40.00;100506.44;5041924;28;20432;-70
2023/08/18 08:02:48;;;;;;;0.50;0.50;;;;;;;30.27;39.92;100510.19;5043751;28;20040;-70
2023/08/18 08:05:20;;;;;;;0.50;0.50;;;;;;;30.44;39.59;100507.84;5027420;28;20064;-70
2023/08/18 08:07:47;;;;;;;0.50;0.50;;;;;;;30.45;39.58;100514.31;5009946;28;20273;-74
2023/08/18 08:10:14;;;;;;;0.50;0.50;;;;;;;30.58;39.40;100507.09;5044146;28;20122;-73
2023/08/18 08:12:41;;;;;;;0.50;0.50;;;;;;;30.74;39.82;100494.72;5043322;28;20301;-73
2023/08/18 08:15:08;;;;;;;;;;;;;;;30.88;39.52;100493.97;5044763;28;20041;-73
2023/08/18 08:17:36;;;;;;;0.50;0.50;;;;;;;31.02;39.20;100507.31;5035619;28;19956;-75
2023/08/18 08:20:15;;;;;;;0.50;0.50;;;;;;;31.15;38.31;100499.28;5040374;28;20116;-74
2023/08/18 08:22:42;;;;;;;0.50;0.50;;;;;;;31.23;37.71;100489.63;5044686;28;20049;-73
2023/08/18 08:25:09;;;;;;;0.50;0.50;;;;;;;31.32;36.89;100501.38;5043098;28;20110;-73
2023/08/18 08:27:35;;;;;;;0.60;0.60;;;;;;;31.63;36.79;100498.16;5042903;28;20226;-73
2023/08/18 08:30:02;;;;;;;0.60;0.60;;;;;;;31.94;36.00;100490.09;5037099;28;20044;-74
2023/08/18 08:32:30;;;;;;;0.60;0.60;;;;;;;32.20;34.92;100490.84;5042143;28;20037;-74
2023/08/18 08:34:57;;;;;;;0.50;0.50;;;;;;;32.39;34.68;100483.94;5040493;28;20060;-74
2023/08/18 08:37:23;;;;;;;0.60;0.60;;;;;;;32.48;34.36;100497.66;5044444;28;20063;-74
2023/08/18 08:39:50;;;;;;;0.70;0.70;;;;;;;32.89;34.21;100494.25;5041193;28;20326;-73
2023/08/18 08:42:16;;;;;;;0.50;0.50;;;;;;;32.85;33.87;100499.13;5028671;28;20319;-73
2023/08/18 08:44:43;;;;;;;0.60;0.60;;;;;;;32.80;34.08;100500.34;5033372;28;20132;-73
2023/08/18 08:47:10;;;;;;;0.60;0.60;;;;;;;32.97;33.37;100502.72;5016094;28;20419;-73
2023/08/18 08:49:39;;;;;;;0.52;0.52;;;;;;;32.76;34.10;100512.91;5039373;28;20094;-73
2023/08/18 08:52:13;;;;;;;0.60;0.60;;;;;;;32.22;35.31;100511.03;5040488;28;20037;-73
2023/08/18 08:54:49;;;;;;;0.50;0.50;;;;;;;32.55;33.98;100511.78;5031711;28;20335;-73
2023/08/18 08:57:19;;;;;;;0.50;0.50;;;;;;;32.89;34.22;100510.44;5031494;28;20703;-73
2023/08/18 08:59:46;;;;;;;0.60;0.60;;;;;;;33.02;34.09;100513.63;5031159;28;20071;-73
2023/08/18 09:02:12;;;;;;;0.60;0.60;;;;;;;32.69;34.24;100508.06;5041064;28;20049;-73
2023/08/18 09:04:38;;;;;;;0.60;0.60;;;;;;;32.77;34.21;100514.50;5035303;28;20115;-74
2023/08/18 09:07:05;;;;;;;0.60;0.60;;;;;;;32.78;34.24;100516.94;5028969;28;20516;-73
2023/08/18 09:09:32;;;;;;;0.50;0.50;;;;;;;32.57;34.78;100517.03;5024951;28;20076;-73
2023/08/18 09:12:06;;;;;;;0.50;0.50;;;;;;;31.98;36.01;100516.31;5033337;28;20116;-73
2023/08/18 09:14:34;;;;;;;0.45;0.45;;;;;;;31.34;36.77;100529.19;5038901;28;20532;-72
2023/08/18 09:17:00;;;;;;;0.40;0.40;;;;;;;30.79;37.70;100531.81;5040540;28;20518;-70
2023/08/18 09:19:27;;;;;;;0.40;0.40;;;;;;;30.28;38.46;100537.19;5045439;28;20103;-70
2023/08/18 09:21:56;;;;;;;0.40;0.40;;;;;;;29.88;39.22;100538.06;5041416;28;20402;-70
2023/08/18 09:24:22;;;;;;;0.40;0.40;;;;;;;29.54;40.00;100550.25;5041609;28;20052;-73
2023/08/18 09:26:50;;;;;;;;;;;;;;;29.20;41.17;100536.19;5027702;28;20056;-74
2023/08/18 09:29:16;;;;;;;0.30;0.30;;;;;;;28.99;42.17;100548.81;5042029;28;19932;-74
2023/08/18 09:31:45;;;;;;;0.30;0.30;;;;;;;28.73;42.85;100551.31;5037697;28;20052;-71
2023/08/18 09:34:19;;;;;;;0.40;0.40;;;;;;;28.62;42.77;100555.97;5018957;28;20373;-74
2023/08/18 09:36:51;;;;;;;0.40;0.40;;;;;;;28.63;43.22;100551.97;5041598;28;20056;-75
2023/08/18 09:39:17;;;;;;;0.40;0.40;;;;;;;28.73;41.89;100556.94;5043641;28;20046;-75
2023/08/18 09:41:46;;;;;;;0.40;0.40;;;;;;;28.82;41.32;100553.03;5029405;28;20144;-75
2023/08/18 09:44:14;;;;;;;0.50;0.50;;;;;;;29.09;41.68;100558.59;5007563;28;20042;-74
2023/08/18 09:46:42;;;;;;;0.43;0.43;;;;;;;29.23;40.94;100561.56;5024580;28;20095;-74
2023/08/18 09:49:10;;;;;;;0.40;0.40;;;;;;;29.10;41.11;100554.56;5042015;28;20140;-74
2023/08/18 09:51:37;;;;;;;0.40;0.40;;;;;;;29.11;41.21;100559.84;5041351;28;20634;-75
2023/08/18 09:54:10;;;;;;;0.50;0.50;;;;;;;29.13;41.25;100559.44;5046120;28;20095;-75
2023/08/18 09:56:41;;;;;;;0.40;0.40;;;;;;;29.01;41.93;100563.31;5046635;28;20080;-74
2023/08/18 09:59:17;;;;;;;0.40;0.40;;;;;;;28.92;41.72;100549.53;4686298;28;10000601;-74
2023/08/18 10:01:46;;;;;;;0.40;0.40;;;;;;;28.83;41.79;100549.03;4679744;28;10000186;-74
2023/08/18 10:04:13;;;;;;;0.40;0.40;;;;;;;28.78;42.32;100547.31;5040146;28;20045;-74
2023/08/18 10:06:41;;;;;;;0.40;0.40;;;;;;;28.67;43.31;100555.63;5005361;28;20046;-74
2023/08/18 10:09:10;;;;;;;0.40;0.40;;;;;;;28.47;43.55;100556.94;5028971;28;20320;-73
2023/08/18 10:11:36;;;;;;;0.40;0.40;;;;;;;28.30;43.91;100545.06;5045616;28;20045;-70
2023/08/18 10:14:03;;;;;;;0.40;0.40;;;;;;;28.13;44.64;100537.94;5046452;28;20136;-69
2023/08/18 10:16:32;;;;;;;0.40;0.40;;;;;;;28.04;44.61;100538.22;5042417;28;20033;-70
2023/08/18 10:18:58;;;;;;;0.40;0.40;;;;;;;27.99;44.51;100538.53;5029151;28;20045;-70
2023/08/18 10:21:26;;;;;;;0.40;0.40;;;;;;;27.93;44.57;100534.41;5047458;28;20230;-69
2023/08/18 10:23:53;;;;;;;0.40;0.40;;;;;;;27.96;44.67;100523.25;5042298;28;20114;-69
2023/08/18 10:26:22;;;;;;;0.30;0.30;;;;;;;27.93;44.04;100529.63;5023185;28;20049;-70
2023/08/18 10:28:48;;;;;;;0.30;0.30;;;;;;;27.85;44.10;100519.44;5019996;28;20431;-70
2023/08/18 10:31:14;;;;;;;0.30;0.30;;;;;;;27.73;44.47;100517.63;5009694;28;20072;-70
2023/08/18 10:33:44;;;;;;;0.35;0.35;;;;;;;27.60;44.89;100522.66;5028801;28;20099;-70
2023/08/18 10:36:18;;;;;;;0.40;0.40;;;;;;;27.51;45.08;100527.66;5038848;28;20048;-72
2023/08/18 10:38:44;;;;;;;0.40;0.40;;;;;;;27.47;45.93;100524.78;5028550;28;20048;-75
2023/08/18 10:41:11;;;;;;;0.40;0.40;;;;;;;27.40;45.86;100530.28;5033757;28;20157;-74
2023/08/18 10:43:42;;;;;;;0.30;0.30;;;;;;;27.25;46.18;100529.22;5009416;28;20049;-74
2023/08/18 10:46:13;;;;;;;0.40;0.40;;;;;;;27.21;46.54;100543.16;5048024;28;20538;-75
2023/08/18 10:48:39;;;;;;;0.40;0.40;;;;;;;27.13;47.17;100535.78;5028099;28;20077;-75
2023/08/18 10:51:08;;;;;;;0.40;0.40;;;;;;;27.07;47.66;100537.28;5036771;28;20057;-74
2023/08/18 10:53:37;;;;;;;0.30;0.30;;;;;;;26.98;48.51;100541.09;5045763;28;20048;-73
2023/08/18 10:56:04;;;;;;;0.40;0.40;;;;;;;26.90;49.21;100531.72;5044343;28;20095;-73
2023/08/18 10:58:31;;;;;;;0.40;0.40;;;;;;;26.86;48.90;100538.47;5045119;28;20140;-74
2023/08/18 11:00:57;;;;;;;0.38;0.38;;;;;;;26.82;49.16;100534.72;5042381;28;20531;-73
2023/08/18 11:03:25;;;;;;;0.30;0.30;;;;;;;26.74;49.37;100548.59;5046985;28;20102;-74
2023/08/18 11:05:52;;;;;;;0.30;0.30;;;;;;;26.65;50.28;100541.59;5026855;28;20037;-74
2023/08/18 11:08:20;;;;;;;0.32;0.32;;;;;;;26.41;51.12;100521.84;5045470;28;20084;-75
2023/08/18 11:10:46;;;;;;;0.40;0.40;;;;;;;26.53;51.59;100542.50;5041848;28;20049;-75
2023/08/18 11:13:22;;;;;;;0.30;0.30;;;;;;;26.47;52.21;100537.19;5046319;28;20056;-74
2023/08/18 11:15:49;;;;;;;0.40;0.40;;;;;;;26.39;53.39;100535.44;5035969;28;20562;-74
2023/08/18 11:18:15;;;;;;;;;;;;;;;26.39;53.98;100526.19;5042290;28;20091;-74
2023/08/18 11:20:42;;;;;;;0.40;0.40;;;;;;;26.43;55.01;100527.06;5039065;28;20399;-75
2023/08/18 11:23:09;;;;;;;0.40;0.40;;;;;;;26.44;56.07;100521.13;5037464;28;20453;-74
2023/08/18 11:25:37;;;;;;;0.32;0.32;;;;;;;26.46;56.62;100518.75;5041547;28;20239;-74
2023/08/18 11:28:04;;;;;;;0.32;0.32;;;;;;;26.50;56.93;100520.81;5045184;28;20099;-74